PWSweather.com
Personal Weather Stations
Station Observations
CONLIG1
Conlig, Bangor Co DownGB BT23

ConligBangor Co DownGB BT23

Lat: 54.63399887, Lon: -5.671

Elevation: 166

Station Type: Davis Vantage Pro2 Plus

https://www.conligwx.org

Latest ConditionsUpdated 9:03:31 AM GMT Friday, Feb 22, 2019
Currently Today's Max Today's Min Today's Average
Temperature 50.7°F10.4°C 51.1°F10.6°C 48.6°F9.2°C 49.9°F9.9°C
Dew Point 45.5°F7.5°C 46.4°F8.0°C 44.6°F7.0°C 45.2°F7.3°C
Winds 8.9 mph SE14.3 kmh SE 10.1 mph -16.3 kmh - - 8.0 mph 12.9 kmh
Wind Gusts 21.0 mph33.8 kmh 26.0 mph41.8 kmh - -
Humidity 82% 88% 79% 84%
Pressure 30.35 in1027.8 mb 30.35 in1027.8 mb 30.24 in1024.0 mb -
Hour Temp Dew Point Humidity Winds Wind Gusts Pressure Precip Precip Rate Daily Precip Total
09:03 AM 50.7°F10.4°C 45.5°F7.5°C 82% 8.9 mph SE14.3 kmh SE 21.0 mph33.8 kmh 30.35 in1027.8 mb 0.00 in0.0 mm 0.00 in0.0 mm 0.00 in0.0 mm
08:48 AM 50.5°F10.3°C 45.3°F7.4°C 82% 6.9 mph S11.1 kmh S 19.0 mph30.6 kmh 30.35 in1027.8 mb 0.00 in0.0 mm 0.00 in0.0 mm 0.00 in0.0 mm
08:33 AM 50.4°F10.2°C 45.1°F7.3°C 82% 6.0 mph S9.7 kmh S 16.1 mph25.9 kmh 30.34 in1027.4 mb 0.00 in0.0 mm 0.00 in0.0 mm 0.00 in0.0 mm
08:18 AM 50.2°F10.1°C 45.0°F7.2°C 82% 6.0 mph S9.7 kmh S 19.0 mph30.6 kmh 30.34 in1027.4 mb 0.00 in0.0 mm 0.00 in0.0 mm 0.00 in0.0 mm
08:03 AM 50.2°F10.1°C 45.0°F7.2°C 82% 6.9 mph SSE11.1 kmh SSE 16.1 mph25.9 kmh 30.33 in1027.1 mb 0.00 in0.0 mm 0.00 in0.0 mm 0.00 in0.0 mm
07:48 AM 50.4°F10.2°C 44.8°F7.1°C 81% 8.1 mph S13.0 kmh S 19.0 mph30.6 kmh 30.32 in1026.8 mb 0.00 in0.0 mm 0.00 in0.0 mm 0.00 in0.0 mm
07:33 AM 50.4°F10.2°C 44.8°F7.1°C 81% 6.9 mph S11.1 kmh S 18.0 mph29.0 kmh 30.31 in1026.4 mb 0.00 in0.0 mm 0.00 in0.0 mm 0.00 in0.0 mm
07:18 AM 50.5°F10.3°C 45.0°F7.2°C 81% 8.9 mph S14.3 kmh S 22.0 mph35.4 kmh 30.30 in1026.1 mb 0.00 in0.0 mm 0.00 in0.0 mm 0.00 in0.0 mm
07:03 AM 50.5°F10.3°C 44.6°F7.0°C 80% 8.9 mph S14.3 kmh S 25.1 mph40.4 kmh 30.29 in1025.7 mb 0.00 in0.0 mm 0.00 in0.0 mm 0.00 in0.0 mm
06:48 AM 50.7°F10.4°C 44.8°F7.1°C 80% 8.9 mph S14.3 kmh S 23.0 mph37.0 kmh 30.29 in1025.7 mb 0.00 in0.0 mm 0.00 in0.0 mm 0.00 in0.0 mm
06:33 AM 50.9°F10.5°C 45.0°F7.2°C 80% 10.1 mph SE16.3 kmh SE 20.0 mph32.2 kmh 30.28 in1025.4 mb 0.00 in0.0 mm 0.00 in0.0 mm 0.00 in0.0 mm
06:18 AM 50.7°F10.4°C 44.8°F7.1°C 80% 8.9 mph SE14.3 kmh SE 23.0 mph37.0 kmh 30.28 in1025.4 mb 0.00 in0.0 mm 0.00 in0.0 mm 0.00 in0.0 mm
06:03 AM 51.1°F10.6°C 44.8°F7.1°C 79% 8.9 mph SSW14.3 kmh SSW 25.1 mph40.4 kmh 30.28 in1025.4 mb 0.00 in0.0 mm 0.00 in0.0 mm 0.00 in0.0 mm
05:48 AM 51.1°F10.6°C 44.8°F7.1°C 79% 10.1 mph S16.3 kmh S 21.9 mph35.2 kmh 30.27 in1025.1 mb 0.00 in0.0 mm 0.00 in0.0 mm 0.00 in0.0 mm
05:33 AM 51.1°F10.6°C 44.8°F7.1°C 79% 10.1 mph S16.3 kmh S 25.9 mph41.7 kmh 30.27 in1025.1 mb 0.00 in0.0 mm 0.00 in0.0 mm 0.00 in0.0 mm
05:18 AM 51.1°F10.6°C 45.1°F7.3°C 80% 10.1 mph S16.3 kmh S 21.0 mph33.8 kmh 30.26 in1024.7 mb 0.00 in0.0 mm 0.00 in0.0 mm 0.00 in0.0 mm
05:03 AM 50.7°F10.4°C 45.1°F7.3°C 81% 8.9 mph SW14.3 kmh SW 21.9 mph35.2 kmh 30.26 in1024.7 mb 0.00 in0.0 mm 0.00 in0.0 mm 0.00 in0.0 mm
04:48 AM 50.4°F10.2°C 45.1°F7.3°C 82% 10.1 mph S16.3 kmh S 24.0 mph38.6 kmh 30.26 in1024.7 mb 0.00 in0.0 mm 0.00 in0.0 mm 0.00 in0.0 mm
04:33 AM 50.2°F10.1°C 45.1°F7.3°C 83% 8.9 mph SW14.3 kmh SW 23.0 mph37.0 kmh 30.26 in1024.7 mb 0.00 in0.0 mm 0.00 in0.0 mm 0.00 in0.0 mm
04:18 AM 49.8°F9.9°C 45.1°F7.3°C 84% 8.1 mph SE13.0 kmh SE 20.0 mph32.2 kmh 30.26 in1024.7 mb 0.00 in0.0 mm 0.00 in0.0 mm 0.00 in0.0 mm
04:03 AM 49.8°F9.9°C 45.1°F7.3°C 84% 10.1 mph S16.3 kmh S 23.0 mph37.0 kmh 30.24 in1024.0 mb 0.00 in0.0 mm 0.00 in0.0 mm 0.00 in0.0 mm
03:48 AM 49.5°F9.7°C 44.8°F7.1°C 84% 8.1 mph SSW13.0 kmh SSW 23.0 mph37.0 kmh 30.24 in1024.0 mb 0.00 in0.0 mm 0.00 in0.0 mm 0.00 in0.0 mm
03:33 AM 48.9°F9.4°C 45.0°F7.2°C 86% 8.9 mph S14.3 kmh S 20.0 mph32.2 kmh 30.24 in1024.0 mb 0.00 in0.0 mm 0.00 in0.0 mm 0.00 in0.0 mm
03:18 AM 48.7°F9.3°C 44.8°F7.1°C 86% 10.1 mph SW16.3 kmh SW 22.0 mph35.4 kmh 30.24 in1024.0 mb 0.00 in0.0 mm 0.00 in0.0 mm 0.00 in0.0 mm
03:03 AM 48.7°F9.3°C 44.8°F7.1°C 86% 8.9 mph SW14.3 kmh SW 24.0 mph38.6 kmh 30.24 in1024.0 mb 0.00 in0.0 mm 0.00 in0.0 mm 0.00 in0.0 mm
02:48 AM 48.7°F9.3°C 45.0°F7.2°C 87% 8.9 mph S14.3 kmh S 26.0 mph41.8 kmh 30.24 in1024.0 mb 0.00 in0.0 mm 0.00 in0.0 mm 0.00 in0.0 mm
02:33 AM 48.6°F9.2°C 45.1°F7.3°C 88% 8.1 mph S13.0 kmh S 19.0 mph30.6 kmh 30.24 in1024.0 mb 0.00 in0.0 mm 0.00 in0.0 mm 0.00 in0.0 mm
02:18 AM 48.6°F9.2°C 45.1°F7.3°C 88% 8.1 mph SSE13.0 kmh SSE 18.0 mph29.0 kmh 30.24 in1024.0 mb 0.00 in0.0 mm 0.00 in0.0 mm 0.00 in0.0 mm
02:03 AM 48.6°F9.2°C 45.1°F7.3°C 88% 4.9 mph SW7.9 kmh SW 20.0 mph32.2 kmh 30.26 in1024.7 mb 0.00 in0.0 mm 0.00 in0.0 mm 0.00 in0.0 mm
01:48 AM 48.9°F9.4°C 45.5°F7.5°C 88% 6.9 mph S11.1 kmh S 17.0 mph27.4 kmh 30.27 in1025.1 mb 0.00 in0.0 mm 0.00 in0.0 mm 0.00 in0.0 mm
01:33 AM 48.9°F9.4°C 45.5°F7.5°C 88% 6.9 mph S11.1 kmh S 17.0 mph27.4 kmh 30.26 in1024.7 mb 0.00 in0.0 mm 0.00 in0.0 mm 0.00 in0.0 mm
01:18 AM 49.1°F9.5°C 45.7°F7.6°C 88% 6.0 mph S9.7 kmh S 18.0 mph29.0 kmh 30.26 in1024.7 mb 0.00 in0.0 mm 0.00 in0.0 mm 0.00 in0.0 mm
01:03 AM 49.3°F9.6°C 45.9°F7.7°C 88% 6.0 mph S9.7 kmh S 17.0 mph27.4 kmh 30.27 in1025.1 mb 0.00 in0.0 mm 0.00 in0.0 mm 0.00 in0.0 mm
12:48 AM 49.3°F9.6°C 45.9°F7.7°C 88% 4.9 mph S7.9 kmh S 15.0 mph24.1 kmh 30.26 in1024.7 mb 0.00 in0.0 mm 0.00 in0.0 mm 0.00 in0.0 mm
12:33 AM 49.6°F9.8°C 46.2°F7.9°C 88% 6.0 mph S9.7 kmh S 21.0 mph33.8 kmh 30.26 in1024.7 mb 0.00 in0.0 mm 0.00 in0.0 mm 0.00 in0.0 mm
12:18 AM 49.8°F9.9°C 46.4°F8.0°C 88% 6.9 mph S11.1 kmh S 17.0 mph27.4 kmh 30.26 in1024.7 mb 0.00 in0.0 mm 0.00 in0.0 mm 0.00 in0.0 mm
12:03 AM 49.6°F9.8°C 46.2°F7.9°C 88% 6.0 mph S9.7 kmh S 15.0 mph24.1 kmh 30.26 in1024.7 mb 0.00 in0.0 mm 0.00 in0.0 mm 0.00 in0.0 mm